Jerome, Pennsylvania
Current Conditions -  °F | °C
As of 3:54 PM on Thursday 27 Nov 2014 (Local Time) from KJST Reporting Station
Light Snow Light Snow  
Wind Chill: 20°   Ceiling: 1400
Heat Index: 29°   Visibility: 3mi
Dew Point: 25°   Wind: 10mph
Humidity: 85%   Direction: 280°W
Pressure: 29.99"   Gusts: NA
Location:  40.21°N, 78.98°W
Report Text: KJST 272054Z AUTO 28009KT 3SM -SN BR BKN014 OVC019 M02/M04 A2999 RMK AO2 SNB38 SLP182 P0000 60000 T10171039 53007
Loading
Personal Weather Stations






























Interactive Weather Map New forecast layout! Learn more

10-Day Weather Forecast

Advertisements
Track Severe Weather on mobile